sensor_id;sensor_type;location;lat;lon;timestamp;pressure;altitude;pressure_sealevel;temperature
38249;BMP280;24045;51.138;17.126;2023-05-10T00:05:45;100358.91;;;9.37
38249;BMP280;24045;51.138;17.126;2023-05-10T00:20:48;100349.42;;;9.02
38249;BMP280;24045;51.138;17.126;2023-05-10T00:35:51;100341.05;;;8.77
38249;BMP280;24045;51.138;17.126;2023-05-10T00:50:54;100337.71;;;8.49
38249;BMP280;24045;51.138;17.126;2023-05-10T01:05:56;100323.16;;;8.24
38249;BMP280;24045;51.138;17.126;2023-05-10T01:51:42;100314.84;;;7.64
38249;BMP280;24045;51.138;17.126;2023-05-10T02:06:47;100316.05;;;7.55
38249;BMP280;24045;51.138;17.126;2023-05-10T02:21:51;100307.41;;;7.38
38249;BMP280;24045;51.138;17.126;2023-05-10T02:36:55;100298.59;;;7.32
38249;BMP280;24045;51.138;17.126;2023-05-10T02:52:00;100292.21;;;7.22
38249;BMP280;24045;51.138;17.126;2023-05-10T03:07:07;100288.52;;;7.15
38249;BMP280;24045;51.138;17.126;2023-05-10T03:22:12;100291.81;;;7.26
38249;BMP280;24045;51.138;17.126;2023-05-10T03:37:17;100292.90;;;7.47
38249;BMP280;24045;51.138;17.126;2023-05-10T03:52:20;100290.89;;;7.95
38249;BMP280;24045;51.138;17.126;2023-05-10T04:07:22;100290.69;;;9.48
38249;BMP280;24045;51.138;17.126;2023-05-10T04:22:25;100287.50;;;11.04
38249;BMP280;24045;51.138;17.126;2023-05-10T04:37:28;100290.94;;;12.50
38249;BMP280;24045;51.138;17.126;2023-05-10T04:52:31;100283.46;;;13.29
38249;BMP280;24045;51.138;17.126;2023-05-10T05:07:33;100289.52;;;14.26
38249;BMP280;24045;51.138;17.126;2023-05-10T05:22:36;100292.21;;;15.83
38249;BMP280;24045;51.138;17.126;2023-05-10T05:37:40;100291.92;;;15.47
38249;BMP280;24045;51.138;17.126;2023-05-10T05:52:42;100280.65;;;16.49
38249;BMP280;24045;51.138;17.126;2023-05-10T06:07:45;100283.30;;;17.40
38249;BMP280;24045;51.138;17.126;2023-05-10T06:22:48;100279.63;;;17.35
38249;BMP280;24045;51.138;17.126;2023-05-10T06:37:51;100295.20;;;17.93
38249;BMP280;24045;51.138;17.126;2023-05-10T06:52:54;100282.34;;;18.66
38249;BMP280;24045;51.138;17.126;2023-05-10T07:07:58;100280.92;;;19.32
38249;BMP280;24045;51.138;17.126;2023-05-10T07:23:01;100284.18;;;18.95
38249;BMP280;24045;51.138;17.126;2023-05-10T07:38:04;100263.73;;;18.98
38249;BMP280;24045;51.138;17.126;2023-05-10T07:53:06;100255.98;;;19.70
38249;BMP280;24045;51.138;17.126;2023-05-10T08:08:10;100244.86;;;20.30
38249;BMP280;24045;51.138;17.126;2023-05-10T08:23:13;100233.58;;;20.84
38249;BMP280;24045;51.138;17.126;2023-05-10T08:38:16;100233.27;;;21.59
38249;BMP280;24045;51.138;17.126;2023-05-10T08:53:19;100222.04;;;21.51
38249;BMP280;24045;51.138;17.126;2023-05-10T09:08:25;100225.92;;;21.78
38249;BMP280;24045;51.138;17.126;2023-05-10T09:23:28;100217.30;;;22.53
38249;BMP280;24045;51.138;17.126;2023-05-10T09:38:45;100208.07;;;23.16
38249;BMP280;24045;51.138;17.126;2023-05-10T09:54:11;100225.94;;;22.47
38249;BMP280;24045;51.138;17.126;2023-05-10T10:09:14;100219.83;;;22.42
38249;BMP280;24045;51.138;17.126;2023-05-10T10:24:17;100206.72;;;22.62
38249;BMP280;24045;51.138;17.126;2023-05-10T10:39:20;100196.38;;;23.00
38249;BMP280;24045;51.138;17.126;2023-05-10T10:54:27;100190.41;;;21.86
38249;BMP280;24045;51.138;17.126;2023-05-10T11:09:39;100182.36;;;21.76
38249;BMP280;24045;51.138;17.126;2023-05-10T11:24:56;100184.58;;;21.94
38249;BMP280;24045;51.138;17.126;2023-05-10T11:39:59;100185.75;;;21.23
38249;BMP280;24045;51.138;17.126;2023-05-10T11:55:02;100159.69;;;21.46
38249;BMP280;24045;51.138;17.126;2023-05-10T12:10:12;100160.55;;;21.08
38249;BMP280;24045;51.138;17.126;2023-05-10T12:25:23;100163.98;;;20.83
38249;BMP280;24045;51.138;17.126;2023-05-10T12:40:27;100169.86;;;20.67
38249;BMP280;24045;51.138;17.126;2023-05-10T12:55:30;100155.92;;;20.57
38249;BMP280;24045;51.138;17.126;2023-05-10T13:10:33;100155.19;;;21.60
38249;BMP280;24045;51.138;17.126;2023-05-10T13:25:36;100148.16;;;22.03
38249;BMP280;24045;51.138;17.126;2023-05-10T13:40:39;100158.70;;;21.81
38249;BMP280;24045;51.138;17.126;2023-05-10T13:55:42;100144.11;;;21.04
38249;BMP280;24045;51.138;17.126;2023-05-10T14:10:44;100122.03;;;21.07
38249;BMP280;24045;51.138;17.126;2023-05-10T14:25:47;100121.91;;;20.85
38249;BMP280;24045;51.138;17.126;2023-05-10T14:40:50;100105.86;;;21.21
38249;BMP280;24045;51.138;17.126;2023-05-10T14:55:55;100105.11;;;21.10
38249;BMP280;24045;51.138;17.126;2023-05-10T15:10:58;100105.88;;;20.97
38249;BMP280;24045;51.138;17.126;2023-05-10T15:26:01;100104.91;;;20.92
38249;BMP280;24045;51.138;17.126;2023-05-10T15:41:06;100104.11;;;20.85
38249;BMP280;24045;51.138;17.126;2023-05-10T15:56:09;100118.27;;;20.41
38249;BMP280;24045;51.138;17.126;2023-05-10T16:11:12;100112.88;;;20.23
38249;BMP280;24045;51.138;17.126;2023-05-10T16:26:19;100112.71;;;20.24
38249;BMP280;24045;51.138;17.126;2023-05-10T16:41:24;100127.91;;;20.25
38249;BMP280;24045;51.138;17.126;2023-05-10T16:56:30;100127.55;;;19.87
38249;BMP280;24045;51.138;17.126;2023-05-10T17:11:33;100132.00;;;19.58
38249;BMP280;24045;51.138;17.126;2023-05-10T17:26:36;100150.14;;;19.44
38249;BMP280;24045;51.138;17.126;2023-05-10T17:41:40;100159.03;;;19.06
38249;BMP280;24045;51.138;17.126;2023-05-10T17:56:43;100167.08;;;18.72
38249;BMP280;24045;51.138;17.126;2023-05-10T18:11:47;100172.30;;;18.39
38249;BMP280;24045;51.138;17.126;2023-05-10T18:26:50;100183.81;;;18.12
38249;BMP280;24045;51.138;17.126;2023-05-10T18:41:53;100190.23;;;17.71
38249;BMP280;24045;51.138;17.126;2023-05-10T18:56:56;100205.29;;;17.33
38249;BMP280;24045;51.138;17.126;2023-05-10T19:12:00;100221.44;;;16.72
38249;BMP280;24045;51.138;17.126;2023-05-10T19:27:03;100224.10;;;16.10
38249;BMP280;24045;51.138;17.126;2023-05-10T19:42:06;100244.69;;;15.57
38249;BMP280;24045;51.138;17.126;2023-05-10T19:57:09;100251.55;;;15.62
38249;BMP280;24045;51.138;17.126;2023-05-10T20:12:14;100266.19;;;15.35
38249;BMP280;24045;51.138;17.126;2023-05-10T20:27:17;100286.31;;;14.86
38249;BMP280;24045;51.138;17.126;2023-05-10T20:42:22;100289.94;;;14.46
38249;BMP280;24045;51.138;17.126;2023-05-10T20:57:26;100297.43;;;14.24
38249;BMP280;24045;51.138;17.126;2023-05-10T21:12:28;100296.19;;;14.61
38249;BMP280;24045;51.138;17.126;2023-05-10T21:27:31;100297.51;;;14.74
38249;BMP280;24045;51.138;17.126;2023-05-10T21:42:33;100298.09;;;14.62
38249;BMP280;24045;51.138;17.126;2023-05-10T21:57:36;100305.23;;;14.56
38249;BMP280;24045;51.138;17.126;2023-05-10T22:12:39;100311.14;;;14.47
38249;BMP280;24045;51.138;17.126;2023-05-10T22:27:41;100314.64;;;14.44
38249;BMP280;24045;51.138;17.126;2023-05-10T22:42:44;100314.10;;;14.37
38249;BMP280;24045;51.138;17.126;2023-05-10T22:57:46;100316.98;;;14.23
38249;BMP280;24045;51.138;17.126;2023-05-10T23:12:49;100329.52;;;14.06
38249;BMP280;24045;51.138;17.126;2023-05-10T23:27:52;100329.09;;;13.71
38249;BMP280;24045;51.138;17.126;2023-05-10T23:42:55;100334.86;;;13.33
38249;BMP280;24045;51.138;17.126;2023-05-10T23:57:58;100341.67;;;13.04
